Time;durP1;ratioP1;P1;durP2;ratioP2;P2;SDS_P1;SDS_P2;PMS_P1;PMS_P2;Temp;Humidity;BMP_temperature;BMP_pressure;BME280_temperature;BME280_humidity;BME280_pressure;Samples;Min_cycle;Max_cycle;Signal;HPM_P1;HPM_P2
2023/05/13 00:01:12;;;;;;;5.72;2.42;;;16.40;71.20;;;;;;5052406;28;20021;-82
2023/05/13 00:03:38;;;;;;;4.30;2.35;;;16.40;71.10;;;;;;5054049;28;20025;-82
2023/05/13 00:06:03;;;;;;;5.95;2.65;;;16.30;70.90;;;;;;5035752;28;20045;-82
2023/05/13 00:08:29;;;;;;;4.38;2.60;;;16.30;70.90;;;;;;5036096;28;20025;-82
2023/05/13 00:10:55;;;;;;;7.90;3.17;;;16.20;70.90;;;;;;5052577;28;20078;-81
2023/05/13 00:13:20;;;;;;;4.82;3.00;;;16.20;70.50;;;;;;5052526;28;20401;-81
2023/05/13 00:15:46;;;;;;;4.72;2.40;;;16.10;70.70;;;;;;5053745;28;20055;-81
2023/05/13 00:18:11;;;;;;;4.53;2.60;;;16.10;70.70;;;;;;5053934;28;20109;-82
2023/05/13 00:20:37;;;;;;;5.97;2.65;;;16.10;70.70;;;;;;5054034;28;20079;-82
2023/05/13 00:23:03;;;;;;;6.20;2.83;;;16.00;71.40;;;;;;5054277;28;20037;-82
2023/05/13 00:25:28;;;;;;;5.80;2.50;;;15.90;70.80;;;;;;5053216;28;20041;-82
2023/05/13 00:27:54;;;;;;;6.38;2.78;;;16.00;70.90;;;;;;5052808;28;20056;-82
2023/05/13 00:30:20;;;;;;;6.72;2.88;;;15.90;70.80;;;;;;5052591;28;20029;-82
2023/05/13 00:32:45;;;;;;;5.30;2.85;;;15.90;70.90;;;;;;5053568;28;20021;-82
2023/05/13 00:35:11;;;;;;;5.50;2.90;;;15.80;70.80;;;;;;5035179;28;20087;-82
2023/05/13 00:37:37;;;;;;;5.18;2.70;;;15.80;70.80;;;;;;5035712;28;20364;-82
2023/05/13 00:40:03;;;;;;;4.53;2.50;;;15.70;70.80;;;;;;5052025;28;20025;-83
2023/05/13 00:42:29;;;;;;;6.97;3.15;;;15.70;70.80;;;;;;5019278;28;20025;-84
2023/05/13 00:44:54;;;;;;;6.15;2.65;;;15.60;70.90;;;;;;5052433;28;20091;-83
2023/05/13 00:47:21;;;;;;;5.57;2.83;;;15.60;71.00;;;;;;5051835;28;20020;-82
2023/05/13 00:49:46;;;;;;;4.85;2.45;;;15.60;71.00;;;;;;5035856;28;20132;-83
2023/05/13 00:52:12;;;;;;;4.82;2.92;;;15.50;71.00;;;;;;5052149;28;20473;-83
2023/05/13 00:54:38;;;;;;;6.15;2.78;;;15.50;71.10;;;;;;5052266;28;20358;-83
2023/05/13 00:57:04;;;;;;;6.63;2.97;;;15.40;71.80;;;;;;5035048;28;20025;-83
2023/05/13 00:59:30;;;;;;;6.88;3.50;;;15.40;71.20;;;;;;5019169;28;20025;-83
2023/05/13 01:02:11;;;;;;;8.07;3.10;;;15.40;71.30;;;;;;5035096;28;20414;-83
2023/05/13 01:04:43;;;;;;;5.18;2.70;;;15.30;71.30;;;;;;5051099;28;20037;-83
2023/05/13 01:07:12;;;;;;;10.65;3.05;;;15.30;71.50;;;;;;5051420;28;20045;-84
2023/05/13 01:09:46;;;;;;;9.73;3.30;;;15.30;71.50;;;;;;5051898;28;20021;-83
2023/05/13 01:12:20;;;;;;;6.80;2.92;;;15.20;71.50;;;;;;5051712;28;20024;-83
2023/05/13 01:14:58;;;;;;;9.50;3.42;;;15.30;71.60;;;;;;5053073;28;20142;-82
2023/05/13 01:17:31;;;;;;;6.43;3.20;;;15.20;72.20;;;;;;5051477;28;20083;-82
2023/05/13 01:19:59;;;;;;;7.68;3.38;;;15.20;71.50;;;;;;5053087;28;20025;-83
2023/05/13 01:22:24;;;;;;;7.25;3.05;;;15.30;71.60;;;;;;5035162;28;20021;-82
2023/05/13 01:24:50;;;;;;;5.35;2.83;;;15.20;71.60;;;;;;5052791;28;20029;-82
2023/05/13 01:27:16;;;;;;;5.35;2.95;;;15.20;71.70;;;;;;5052857;28;20017;-82
2023/05/13 01:29:43;;;;;;;6.35;3.28;;;15.20;71.80;;;;;;5052746;28;20025;-83
2023/05/13 01:32:10;;;;;;;4.78;2.78;;;15.20;71.80;;;;;;5034690;28;20025;-82
2023/05/13 01:34:38;;;;;;;5.88;3.28;;;15.10;71.80;;;;;;5034819;28;20457;-82
2023/05/13 01:37:04;;;;;;;5.70;3.25;;;15.10;71.90;;;;;;5052698;28;20124;-82
2023/05/13 01:39:31;;;;;;;8.48;3.08;;;15.10;71.90;;;;;;5051752;28;20055;-82
2023/05/13 01:41:57;;;;;;;7.57;3.00;;;15.10;71.90;;;;;;5051253;28;20036;-82
2023/05/13 01:44:23;;;;;;;9.30;3.67;;;15.00;72.00;;;;;;5051093;28;20029;-82
2023/05/13 01:46:49;;;;;;;6.80;3.38;;;15.00;72.10;;;;;;5051523;28;20017;-82
2023/05/13 01:49:16;;;;;;;7.03;3.60;;;15.00;72.10;;;;;;5019099;28;20373;-82
2023/05/13 01:51:41;;;;;;;7.80;3.47;;;14.90;72.10;;;;;;5052446;28;20025;-82
2023/05/13 01:54:07;;;;;;;5.22;2.90;;;14.90;72.20;;;;;;5034686;28;20036;-82
2023/05/13 01:56:33;;;;;;;6.13;3.58;;;14.80;72.30;;;;;;5051322;28;20021;-81
2023/05/13 01:58:59;;;;;;;4.50;2.92;;;14.80;72.30;;;;;;5051486;28;20057;-82
2023/05/13 02:01:24;;;;;;;6.10;3.15;;;14.80;72.60;;;;;;5034271;28;20449;-83
2023/05/13 02:03:50;;;;;;;8.10;3.30;;;14.70;72.70;;;;;;5052543;28;20029;-82
2023/05/13 02:06:16;;;;;;;6.85;3.90;;;14.70;72.90;;;;;;5050863;28;20468;-81
2023/05/13 02:08:41;;;;;;;6.15;3.20;;;14.70;72.90;;;;;;5052802;28;20448;-82
2023/05/13 02:11:07;;;;;;;8.77;3.35;;;14.60;73.00;;;;;;5052479;28;20028;-82
2023/05/13 02:13:33;;;;;;;6.38;3.42;;;14.60;73.10;;;;;;5055034;28;20029;-82
2023/05/13 02:15:59;;;;;;;5.55;3.00;;;14.50;73.20;;;;;;5054392;28;20354;-82
2023/05/13 02:18:24;;;;;;;6.07;3.38;;;14.50;73.30;;;;;;5038270;28;20029;-82
2023/05/13 02:20:50;;;;;;;7.70;3.88;;;14.40;73.50;;;;;;5038248;28;20029;-82
2023/05/13 02:23:16;;;;;;;7.47;3.47;;;14.40;73.60;;;;;;5055935;28;20017;-83
2023/05/13 02:25:42;;;;;;;7.22;3.58;;;14.30;73.80;;;;;;5054614;28;20554;-82
2023/05/13 02:28:08;;;;;;;8.20;2.90;;;14.30;73.90;;;;;;5054572;28;20032;-82
2023/05/13 02:30:33;;;;;;;5.57;3.58;;;14.30;74.00;;;;;;5054598;28;20029;-82
2023/05/13 02:33:00;;;;;;;8.57;3.83;;;14.20;74.10;;;;;;5055695;28;20369;-82
2023/05/13 02:35:29;;;;;;;6.03;3.40;;;14.20;74.40;;;;;;5054317;28;20021;-82
2023/05/13 02:37:55;;;;;;;5.75;3.92;;;14.20;74.40;;;;;;5054119;28;20067;-82
2023/05/13 02:40:21;;;;;;;5.72;3.50;;;14.10;74.50;;;;;;5054480;28;20518;-81
2023/05/13 02:42:47;;;;;;;7.68;3.78;;;14.10;74.70;;;;;;5054554;28;20029;-82
2023/05/13 02:45:13;;;;;;;7.82;3.78;;;14.10;74.70;;;;;;5054272;28;20215;-82
2023/05/13 02:47:42;;;;;;;6.50;4.20;;;14.00;75.10;;;;;;5037932;28;20491;-81
2023/05/13 02:50:09;;;;;;;9.35;4.00;;;14.00;75.10;;;;;;5038038;28;20025;-82
2023/05/13 02:52:35;;;;;;;5.85;3.70;;;14.00;75.20;;;;;;5055457;28;20056;-82
2023/05/13 02:55:08;;;;;;;7.40;4.05;;;13.90;75.30;;;;;;5055238;28;20021;-82
2023/05/13 02:57:35;;;;;;;7.72;3.72;;;13.90;75.50;;;;;;5055326;28;20473;-82
2023/05/13 03:00:01;;;;;;;8.60;3.95;;;13.90;75.70;;;;;;5055043;28;20079;-81
2023/05/13 03:02:27;;;;;;;7.03;4.05;;;13.90;75.80;;;;;;5054019;28;20108;-81
2023/05/13 03:04:54;;;;;;;9.55;4.80;;;13.80;75.90;;;;;;5053265;28;20211;-81
2023/05/13 03:07:20;;;;;;;7.10;3.95;;;13.80;76.00;;;;;;5053816;28;20032;-82
2023/05/13 03:09:45;;;;;;;7.40;4.13;;;13.70;76.20;;;;;;5053792;28;20021;-81
2023/05/13 03:12:11;;;;;;;7.90;4.10;;;13.70;76.40;;;;;;5053839;28;20029;-82
2023/05/13 03:14:37;;;;;;;10.05;4.43;;;13.70;76.50;;;;;;5053792;28;20032;-82
2023/05/13 03:17:03;;;;;;;10.77;4.40;;;13.60;76.70;;;;;;5053501;28;20407;-82
2023/05/13 03:19:28;;;;;;;10.85;4.20;;;13.60;76.80;;;;;;5036992;28;20128;-82
2023/05/13 03:21:54;;;;;;;9.38;4.47;;;13.50;77.00;;;;;;5053377;28;20120;-82
2023/05/13 03:24:20;;;;;;;7.43;4.78;;;13.50;77.20;;;;;;5036735;28;20055;-82
2023/05/13 03:26:45;;;;;;;9.63;5.10;;;13.50;77.60;;;;;;5053476;28;20465;-82
2023/05/13 03:29:11;;;;;;;7.00;3.80;;;13.50;77.70;;;;;;5036491;28;20032;-82
2023/05/13 03:31:37;;;;;;;7.88;4.78;;;13.40;77.70;;;;;;5036904;28;20021;-82
2023/05/13 03:34:03;;;;;;;8.68;5.47;;;13.40;77.80;;;;;;5036429;28;20127;-81
2023/05/13 03:36:28;;;;;;;9.57;5.05;;;13.40;78.10;;;;;;5053394;28;20033;-82
2023/05/13 03:38:54;;;;;;;8.02;4.78;;;13.40;78.10;;;;;;5054546;28;20100;-82
2023/05/13 03:41:20;;;;;;;9.50;5.40;;;13.30;78.10;;;;;;5036429;28;20021;-82
2023/05/13 03:43:46;;;;;;;9.98;5.25;;;13.30;78.20;;;;;;5054581;28;20099;-81
2023/05/13 03:46:11;;;;;;;8.15;5.28;;;13.30;78.40;;;;;;5054264;28;20071;-81
2023/05/13 03:48:37;;;;;;;10.85;5.68;;;13.20;78.40;;;;;;5019669;28;20120;-82
2023/05/13 03:51:03;;;;;;;8.30;5.00;;;13.20;78.50;;;;;;5019544;28;20112;-81
2023/05/13 03:53:28;;;;;;;8.23;5.28;;;13.10;78.70;;;;;;5054473;28;20047;-81
2023/05/13 03:55:54;;;;;;;7.55;5.00;;;13.10;78.90;;;;;;5053957;28;20025;-82
2023/05/13 03:58:21;;;;;;;7.63;5.25;;;13.00;79.00;;;;;;5053072;28;20590;-83
2023/05/13 04:00:47;;;;;;;12.35;5.60;;;13.00;79.30;;;;;;5036781;28;20033;-82
2023/05/13 04:03:18;;;;;;;8.57;5.65;;;13.00;79.50;;;;;;5054145;28;20025;-82
2023/05/13 04:05:45;;;;;;;6.68;5.13;;;12.90;79.60;;;;;;5052602;28;20523;-82
2023/05/13 04:08:11;;;;;;;10.50;5.97;;;12.90;79.70;;;;;;5052553;28;20379;-82
2023/05/13 04:10:37;;;;;;;9.43;6.30;;;12.90;79.90;;;;;;5052610;28;20029;-82
2023/05/13 04:13:02;;;;;;;10.05;5.97;;;12.80;80.20;;;;;;5052658;28;20025;-82
2023/05/13 04:15:30;;;;;;;10.57;5.80;;;12.80;80.30;;;;;;5035828;28;20051;-82
2023/05/13 04:17:56;;;;;;;8.55;5.45;;;12.80;80.40;;;;;;5052603;28;20025;-82
2023/05/13 04:20:22;;;;;;;9.88;6.60;;;12.70;80.60;;;;;;5052920;28;20034;-81
2023/05/13 04:22:47;;;;;;;8.77;6.00;;;12.70;80.70;;;;;;5035872;28;20094;-81
2023/05/13 04:25:13;;;;;;;11.82;6.65;;;12.70;81.00;;;;;;5019363;28;20048;-82
2023/05/13 04:27:39;;;;;;;8.25;5.90;;;12.60;81.10;;;;;;5051963;28;20025;-81
2023/05/13 04:30:05;;;;;;;11.75;6.10;;;12.60;81.20;;;;;;5052425;28;20104;-82
2023/05/13 04:32:31;;;;;;;10.23;6.15;;;12.60;81.40;;;;;;5053464;28;20341;-81
2023/05/13 04:34:56;;;;;;;9.30;6.10;;;12.60;81.60;;;;;;5051390;28;20024;-81
2023/05/13 04:37:22;;;;;;;10.88;6.85;;;12.50;81.70;;;;;;5053267;28;20025;-81
2023/05/13 04:39:48;;;;;;;11.20;6.75;;;12.50;82.00;;;;;;5035523;28;20028;-81
2023/05/13 04:42:15;;;;;;;10.60;6.97;;;12.50;82.10;;;;;;5052207;28;20095;-81
2023/05/13 04:44:41;;;;;;;11.50;6.13;;;12.50;82.20;;;;;;5019381;28;20032;-82
2023/05/13 04:47:06;;;;;;;11.85;6.82;;;12.50;82.30;;;;;;5052114;28;20017;-81
2023/05/13 04:49:32;;;;;;;8.55;6.43;;;12.50;82.40;;;;;;5053305;28;20025;-81
2023/05/13 04:52:01;;;;;;;9.00;6.10;;;12.50;82.50;;;;;;5052069;28;20023;-81
2023/05/13 04:54:26;;;;;;;10.68;6.70;;;12.50;82.60;;;;;;5052807;28;20044;-81
2023/05/13 04:56:52;;;;;;;11.07;7.40;;;12.40;82.70;;;;;;5052047;28;20063;-81
2023/05/13 04:59:18;;;;;;;11.90;6.97;;;12.40;82.80;;;;;;5018555;28;20028;-81
2023/05/13 05:01:43;;;;;;;11.50;7.00;;;12.40;82.90;;;;;;5035141;28;20028;-82
2023/05/13 05:04:10;;;;;;;13.43;6.85;;;12.40;83.10;;;;;;5051260;28;20021;-82
2023/05/13 05:06:35;;;;;;;11.43;6.60;;;12.40;83.20;;;;;;5035110;28;20393;-83
2023/05/13 05:09:01;;;;;;;11.90;7.47;;;12.50;83.40;;;;;;5052012;28;20028;-82
2023/05/13 05:11:27;;;;;;;10.07;7.18;;;12.40;83.40;;;;;;5051520;28;20025;-81
2023/05/13 05:13:53;;;;;;;9.50;6.80;;;12.40;83.70;;;;;;5053260;28;20521;-82
2023/05/13 05:16:19;;;;;;;12.13;7.35;;;12.50;83.80;;;;;;5052989;28;20052;-82
2023/05/13 05:18:45;;;;;;;12.02;6.63;;;12.50;84.00;;;;;;5052005;28;20342;-82
2023/05/13 05:21:11;;;;;;;12.88;7.55;;;12.50;84.10;;;;;;5052691;28;20036;-81
2023/05/13 05:23:37;;;;;;;12.70;7.93;;;12.50;84.20;;;;;;5034965;28;20457;-82
2023/05/13 05:26:02;;;;;;;12.27;7.18;;;12.50;84.30;;;;;;5051563;28;20115;-82
2023/05/13 05:28:28;;;;;;;9.70;6.97;;;12.60;84.50;;;;;;5035466;28;20064;-81
2023/05/13 05:30:54;;;;;;;12.63;6.72;;;12.60;84.70;;;;;;5051830;28;20372;-82
2023/05/13 05:33:20;;;;;;;11.57;7.43;;;12.70;84.70;;;;;;5051098;28;20025;-81
2023/05/13 05:35:46;;;;;;;12.27;7.82;;;12.70;85.00;;;;;;5052514;28;20025;-83
2023/05/13 05:38:12;;;;;;;10.32;7.43;;;12.80;85.20;;;;;;5052611;28;20452;-83
2023/05/13 05:40:40;;;;;;;11.32;7.95;;;12.80;85.40;;;;;;5035019;28;20051;-84
2023/05/13 05:43:06;;;;;;;11.02;7.80;;;12.80;85.50;;;;;;5051173;28;20130;-83
2023/05/13 05:45:34;;;;;;;12.07;7.70;;;12.80;85.40;;;;;;5034985;28;20033;-83
2023/05/13 05:48:00;;;;;;;10.75;7.35;;;12.90;85.40;;;;;;5054959;28;20019;-84
2023/05/13 05:50:27;;;;;;;10.18;6.60;;;12.90;85.60;;;;;;5056116;28;20020;-84
2023/05/13 05:52:53;;;;;;;12.43;7.60;;;12.90;85.50;;;;;;5055618;28;20025;-84
2023/05/13 05:55:19;;;;;;;12.65;7.70;;;13.00;85.60;;;;;;5055316;28;20124;-84
2023/05/13 05:57:45;;;;;;;14.90;6.82;;;13.00;85.80;;;;;;5055574;28;20035;-84
2023/05/13 06:00:11;;;;;;;12.55;6.90;;;13.10;85.80;;;;;;5040638;28;20064;-84
2023/05/13 06:02:37;;;;;;;9.27;7.00;;;13.10;85.80;;;;;;5024635;28;20021;-85
2023/05/13 06:05:03;;;;;;;12.70;7.80;;;13.20;86.00;;;;;;5031729;28;20075;-83
2023/05/13 06:07:28;;;;;;;12.85;8.07;;;13.20;86.00;;;;;;5050380;28;20056;-84
2023/05/13 06:09:54;;;;;;;11.00;7.68;;;13.30;86.10;;;;;;5051968;28;20457;-83
2023/05/13 06:12:21;;;;;;;11.23;6.53;;;13.40;86.00;;;;;;5047278;28;20082;-84
2023/05/13 06:14:47;;;;;;;9.77;6.38;;;13.50;86.00;;;;;;5054559;28;20024;-83
2023/05/13 06:17:13;;;;;;;9.07;6.40;;;13.50;85.90;;;;;;5035427;28;20104;-83
2023/05/13 06:19:42;;;;;;;13.65;6.97;;;13.60;86.00;;;;;;5037113;28;20121;-84
2023/05/13 06:22:11;;;;;;;9.38;6.18;;;13.60;85.90;;;;;;5054673;28;20024;-83
2023/05/13 06:24:43;;;;;;;10.82;6.97;;;13.60;85.90;;;;;;5037979;28;20021;-83
2023/05/13 06:27:10;;;;;;;9.30;6.25;;;13.70;85.70;;;;;;5054376;28;20021;-83
2023/05/13 06:29:36;;;;;;;11.88;6.60;;;13.70;85.50;;;;;;5031416;28;20087;-84
2023/05/13 06:32:02;;;;;;;10.52;6.95;;;13.70;85.50;;;;;;5054881;28;20407;-84
2023/05/13 06:34:27;;;;;;;9.20;5.82;;;13.80;85.60;;;;;;5035862;28;20028;-84
2023/05/13 06:36:53;;;;;;;9.10;6.03;;;13.80;85.50;;;;;;5054868;28;20053;-83
2023/05/13 06:39:18;;;;;;;9.63;5.68;;;13.90;85.40;;;;;;5054234;28;20049;-83
2023/05/13 06:41:44;;;;;;;10.10;6.60;;;13.90;85.30;;;;;;5054661;28;20033;-82
2023/05/13 06:44:10;;;;;;;9.93;7.10;;;14.00;85.30;;;;;;5054268;28;20118;-83
2023/05/13 06:46:35;;;;;;;10.73;6.53;;;14.00;85.20;;;;;;5054145;28;20128;-83
2023/05/13 06:49:01;;;;;;;9.20;5.75;;;14.10;85.30;;;;;;5054088;28;20060;-83
2023/05/13 06:51:27;;;;;;;11.13;4.82;;;14.20;85.30;;;;;;5054154;28;20017;-83
2023/05/13 06:53:54;;;;;;;10.43;5.93;;;14.20;85.50;;;;;;5037729;28;20116;-83
2023/05/13 06:56:22;;;;;;;9.50;5.32;;;14.30;85.50;;;;;;5054503;28;20021;-83
2023/05/13 06:58:49;;;;;;;9.18;5.68;;;14.40;85.50;;;;;;5037374;28;20032;-83
2023/05/13 07:01:15;;;;;;;6.30;4.60;;;14.50;85.60;;;;;;5055050;28;20025;-85
2023/05/13 07:03:42;;;;;;;8.13;4.97;;;14.50;85.50;;;;;;5054571;28;20373;-85
2023/05/13 07:06:08;;;;;;;8.32;5.38;;;14.60;85.30;;;;;;5053785;28;20178;-82
2023/05/13 07:08:33;;;;;;;10.52;5.90;;;14.60;85.10;;;;;;5037220;28;20120;-82
2023/05/13 07:10:59;;;;;;;10.70;5.93;;;14.70;84.80;;;;;;5030896;28;20036;-84
2023/05/13 07:13:25;;;;;;;9.38;4.70;;;14.80;84.60;;;;;;5029109;28;20029;-86
2023/05/13 07:15:51;;;;;;;8.93;5.13;;;14.90;84.50;;;;;;5053368;28;20107;-84
2023/05/13 07:18:17;;;;;;;12.07;5.80;;;14.90;84.40;;;;;;5053126;28;20080;-83
2023/05/13 07:20:42;;;;;;;8.55;5.13;;;15.00;84.30;;;;;;5054435;28;20079;-84
2023/05/13 07:23:08;;;;;;;9.77;5.07;;;15.00;84.20;;;;;;5053675;28;20036;-83
2023/05/13 07:25:34;;;;;;;11.98;4.80;;;15.10;84.10;;;;;;5020123;28;20041;-84
2023/05/13 07:27:59;;;;;;;9.10;5.20;;;15.20;84.00;;;;;;5036660;28;20029;-84
2023/05/13 07:30:25;;;;;;;7.30;4.88;;;15.20;84.00;;;;;;5037035;28;20412;-85
2023/05/13 07:32:51;;;;;;;12.02;4.97;;;15.30;84.00;;;;;;5054508;28;20040;-85
2023/05/13 07:35:16;;;;;;;8.35;4.80;;;15.30;83.90;;;;;;5052266;28;20072;-84
2023/05/13 07:37:43;;;;;;;8.18;4.93;;;15.50;83.50;;;;;;5052359;28;20025;-84
2023/05/13 07:40:09;;;;;;;6.80;3.95;;;15.60;83.10;;;;;;5055269;28;20056;-85
2023/05/13 07:42:36;;;;;;;8.95;4.80;;;15.70;82.70;;;;;;5053254;28;20095;-83
2023/05/13 07:45:02;;;;;;;8.18;4.25;;;15.90;82.20;;;;;;5053797;28;20074;-84
2023/05/13 07:47:30;;;;;;;8.10;4.60;;;15.90;82.00;;;;;;5030601;28;20100;-82
2023/05/13 07:49:56;;;;;;;7.00;3.85;;;16.00;81.80;;;;;;5049811;28;20080;-84
2023/05/13 07:52:22;;;;;;;7.97;3.90;;;16.10;81.80;;;;;;5033832;28;20022;-83
2023/05/13 07:54:48;;;;;;;8.30;4.65;;;16.20;81.60;;;;;;5034276;28;20026;-83
2023/05/13 07:57:13;;;;;;;7.28;3.70;;;16.30;81.50;;;;;;5037657;28;20033;-83
2023/05/13 07:59:39;;;;;;;6.43;4.15;;;16.40;81.40;;;;;;5037540;28;20017;-84
2023/05/13 08:02:05;;;;;;;6.95;3.88;;;16.50;81.10;;;;;;5035658;28;20037;-83
2023/05/13 08:04:31;;;;;;;8.98;4.20;;;16.50;80.60;;;;;;5033741;28;20026;-83
2023/05/13 08:06:56;;;;;;;8.13;3.63;;;16.60;79.60;;;;;;5017353;28;20056;-83
2023/05/13 08:09:23;;;;;;;5.22;3.25;;;16.70;79.10;;;;;;5033050;28;20037;-83
2023/05/13 08:11:49;;;;;;;8.95;3.53;;;16.70;78.70;;;;;;5032691;28;20018;-83
2023/05/13 08:14:14;;;;;;;6.65;3.38;;;16.80;78.10;;;;;;5033726;28;20030;-84
2023/05/13 08:16:40;;;;;;;8.50;3.47;;;16.90;77.50;;;;;;5050458;28;20075;-83
2023/05/13 08:19:05;;;;;;;7.38;3.10;;;17.00;77.00;;;;;;5036865;28;20457;-84
2023/05/13 08:21:31;;;;;;;5.82;3.08;;;17.10;76.50;;;;;;5054029;28;20121;-84
2023/05/13 08:23:57;;;;;;;5.60;2.78;;;17.10;76.50;;;;;;5019940;28;20056;-83
2023/05/13 08:26:23;;;;;;;5.45;2.65;;;17.20;76.10;;;;;;5037560;28;20048;-84
2023/05/13 08:28:48;;;;;;;5.35;2.88;;;17.30;75.50;;;;;;5055003;28;20025;-83
2023/05/13 08:31:14;;;;;;;6.20;2.83;;;17.40;74.70;;;;;;5051752;28;20032;-83
2023/05/13 08:33:41;;;;;;;7.22;2.72;;;17.50;74.20;;;;;;5052347;28;20115;-82
2023/05/13 08:36:07;;;;;;;6.18;2.55;;;17.50;73.50;;;;;;5051314;28;20029;-82
2023/05/13 08:38:33;;;;;;;5.55;2.25;;;17.70;72.90;;;;;;5051083;28;20044;-82
2023/05/13 08:41:02;;;;;;;8.30;2.33;;;17.70;72.30;;;;;;5032347;28;20048;-82
2023/05/13 08:43:30;;;;;;;4.32;2.55;;;17.90;72.10;;;;;;5048751;28;20065;-82
2023/05/13 08:45:58;;;;;;;6.00;2.40;;;18.00;71.70;;;;;;5032411;28;20107;-82
2023/05/13 08:48:24;;;;;;;5.47;2.30;;;18.10;70.90;;;;;;5048844;28;20410;-83
2023/05/13 08:50:51;;;;;;;6.75;2.53;;;18.20;70.60;;;;;;5049263;28;20055;-83
2023/05/13 08:53:19;;;;;;;5.10;2.00;;;18.30;70.10;;;;;;5032363;28;20032;-83
2023/05/13 08:55:45;;;;;;;4.78;2.10;;;18.30;69.30;;;;;;5033615;28;20032;-82
2023/05/13 08:58:11;;;;;;;6.05;1.83;;;18.40;68.70;;;;;;5016157;28;20013;-82
2023/05/13 09:00:39;;;;;;;5.38;2.90;;;18.50;69.20;;;;;;5049110;28;20022;-82
2023/05/13 09:03:05;;;;;;;4.03;2.00;;;18.60;68.20;;;;;;5032461;28;20428;-83
2023/05/13 09:05:32;;;;;;;6.18;2.10;;;18.70;67.60;;;;;;5015143;28;20045;-83
2023/05/13 09:07:57;;;;;;;4.10;1.90;;;18.80;67.30;;;;;;5048426;28;20057;-82
2023/05/13 09:10:23;;;;;;;3.55;2.00;;;18.90;67.00;;;;;;5032989;28;20049;-81
2023/05/13 09:12:51;;;;;;;5.60;2.05;;;19.10;66.30;;;;;;5015597;28;20032;-82
2023/05/13 09:15:22;;;;;;;6.75;2.10;;;19.20;66.30;;;;;;5048608;28;20068;-83
2023/05/13 09:18:08;;;;;;;3.75;1.77;;;19.30;66.30;;;;;;5048823;28;20041;-82
2023/05/13 09:20:34;;;;;;;7.53;2.15;;;19.50;66.30;;;;;;5044669;28;20048;-82
2023/05/13 09:23:09;;;;;;;6.57;2.33;;;19.60;66.20;;;;;;5055449;28;20033;-82
2023/05/13 09:25:38;;;;;;;4.70;2.08;;;19.70;65.50;;;;;;5055644;28;20033;-82
2023/05/13 09:28:06;;;;;;;5.75;2.72;;;19.80;64.90;;;;;;5055880;28;20480;-83
2023/05/13 09:30:32;;;;;;;5.28;2.08;;;19.90;63.90;;;;;;5055971;28;20021;-82
2023/05/13 09:33:07;;;;;;;4.03;1.83;;;20.00;63.60;;;;;;5057127;28;20048;-83
2023/05/13 09:35:34;;;;;;;5.05;1.90;;;20.20;62.50;;;;;;5054909;28;20036;-82
2023/05/13 09:38:00;;;;;;;4.32;1.73;;;20.30;61.50;;;;;;5055240;28;20025;-82
2023/05/13 09:40:26;;;;;;;7.25;2.13;;;20.30;61.00;;;;;;5055916;28;20120;-82
2023/05/13 09:42:57;;;;;;;4.97;2.25;;;20.40;60.40;;;;;;5054320;28;20056;-83
2023/05/13 09:45:25;;;;;;;6.85;1.80;;;20.50;60.00;;;;;;5055485;28;20036;-83
2023/05/13 09:47:53;;;;;;;4.03;1.48;;;20.60;60.30;;;;;;5055550;28;20107;-83
2023/05/13 09:50:19;;;;;;;7.40;2.05;;;20.70;60.20;;;;;;5056904;28;20230;-82
2023/05/13 09:52:45;;;;;;;8.73;1.95;;;20.80;60.20;;;;;;5057407;28;20025;-84
2023/05/13 09:55:11;;;;;;;8.32;1.60;;;20.90;60.10;;;;;;5038061;28;20425;-84
2023/05/13 09:57:38;;;;;;;7.30;1.98;;;21.00;60.00;;;;;;5054651;28;20056;-84
2023/05/13 10:00:05;;;;;;;6.78;1.92;;;21.10;60.30;;;;;;5056381;28;20070;-84
2023/05/13 10:02:31;;;;;;;5.25;1.55;;;21.10;60.30;;;;;;5055090;28;20095;-84
2023/05/13 10:04:57;;;;;;;3.30;1.70;;;21.20;59.00;;;;;;5056059;28;20036;-83
2023/05/13 10:07:24;;;;;;;4.70;1.63;;;21.30;58.60;;;;;;5038762;28;20021;-83
2023/05/13 10:09:53;;;;;;;5.65;1.60;;;21.40;59.00;;;;;;5056217;28;20103;-83
2023/05/13 10:12:21;;;;;;;7.20;1.98;;;21.50;58.80;;;;;;5056216;28;20017;-84
2023/05/13 10:14:49;;;;;;;7.28;1.88;;;21.50;58.50;;;;;;5054844;28;20052;-83
2023/05/13 10:17:15;;;;;;;3.95;1.80;;;21.60;58.00;;;;;;5056312;28;20025;-83
2023/05/13 10:19:41;;;;;;;4.57;2.10;;;21.80;57.70;;;;;;5054836;28;20028;-83
2023/05/13 10:22:07;;;;;;;3.75;1.30;;;21.90;57.80;;;;;;5056225;28;20033;-84
2023/05/13 10:24:34;;;;;;;3.72;1.83;;;22.10;57.30;;;;;;5056937;28;20112;-82
2023/05/13 10:27:01;;;;;;;3.55;1.70;;;22.40;56.60;;;;;;5055347;28;20037;-83
2023/05/13 10:29:28;;;;;;;5.50;1.60;;;22.60;56.40;;;;;;5056034;28;20033;-83
2023/05/13 10:31:54;;;;;;;4.97;1.90;;;22.80;55.70;;;;;;5054850;28;20028;-85
2023/05/13 10:34:21;;;;;;;4.53;2.03;;;23.10;55.30;;;;;;5054686;28;20032;-85
2023/05/13 10:37:22;;;;;;;3.75;1.95;;;23.50;54.40;;;;;;5056175;28;20017;-85
2023/05/13 10:40:19;;;;;;;4.35;1.58;;;23.90;52.80;;;;;;5048294;28;20037;-85
2023/05/13 10:43:07;;;;;;;4.80;1.60;;;24.20;52.90;;;;;;5051217;28;20036;-82
2023/05/13 10:45:33;;;;;;;4.85;1.73;;;24.80;52.70;;;;;;5055350;28;20107;-82
2023/05/13 10:48:05;;;;;;;4.97;1.60;;;25.30;52.30;;;;;;5055944;28;20044;-82
2023/05/13 10:50:34;;;;;;;7.87;1.40;;;25.70;52.10;;;;;;5053988;28;20027;-82
2023/05/13 10:53:02;;;;;;;3.10;1.55;;;25.90;52.30;;;;;;5051805;28;20098;-85
2023/05/13 10:55:28;;;;;;;3.63;1.05;;;26.00;52.10;;;;;;5053577;28;20025;-82
2023/05/13 10:58:08;;;;;;;4.03;1.15;;;26.10;51.60;;;;;;5054219;28;20483;-83
2023/05/13 11:00:34;;;;;;;4.47;1.20;;;26.20;50.70;;;;;;5055001;28;20056;-82
2023/05/13 11:03:27;;;;;;;3.25;1.10;;;26.20;50.60;;;;;;5054960;28;20029;-85
2023/05/13 11:06:21;;;;;;;4.15;1.10;;;26.20;49.50;;;;;;5051859;28;20041;-85
2023/05/13 11:08:51;;;;;;;5.05;1.20;;;26.30;49.40;;;;;;5054235;28;20457;-84
2023/05/13 11:11:20;;;;;;;3.67;1.52;;;26.30;49.70;;;;;;5053968;28;20025;-84
2023/05/13 11:13:49;;;;;;;2.53;1.33;;;26.40;49.40;;;;;;5053007;28;20029;-83
2023/05/13 11:16:15;;;;;;;3.45;1.40;;;26.40;48.90;;;;;;5053679;28;20021;-84
2023/05/13 11:18:41;;;;;;;5.20;1.75;;;26.40;48.30;;;;;;5055415;28;20020;-83
2023/05/13 11:21:07;;;;;;;4.32;1.33;;;26.50;48.20;;;;;;5053623;28;20013;-85
2023/05/13 11:23:48;;;;;;;8.48;1.45;;;26.60;48.00;;;;;;5053447;28;20025;-83
2023/05/13 11:26:15;;;;;;;2.88;1.02;;;26.80;47.60;;;;;;5053231;28;20033;-82
2023/05/13 11:29:04;;;;;;;3.28;1.50;;;26.90;47.10;;;;;;5054203;28;20100;-84
2023/05/13 11:31:48;;;;;;;2.85;1.35;;;27.00;46.60;;;;;;5053232;28;20104;-83
2023/05/13 11:34:18;;;;;;;3.88;1.20;;;27.20;46.50;;;;;;5053157;28;20039;-86
2023/05/13 11:36:49;;;;;;;5.00;1.30;;;27.40;46.70;;;;;;5051874;28;20028;-87
2023/05/13 11:39:20;;;;;;;3.35;1.40;;;27.50;46.30;;;;;;5055286;28;20029;-86
2023/05/13 11:41:49;;;;;;;2.30;1.42;;;27.70;45.90;;;;;;5054510;28;20049;-91
2023/05/13 11:44:21;;;;;;;2.83;1.40;;;27.80;45.50;;;;;;5053500;28;20051;-87
2023/05/13 11:46:57;;;;;;;3.83;1.50;;;27.90;45.40;;;;;;5053626;28;20048;-88
2023/05/13 11:49:33;;;;;;;4.45;1.48;;;28.00;44.80;;;;;;5035114;28;20014;-85
2023/05/13 11:52:18;;;;;;;4.03;1.50;;;28.00;44.70;;;;;;5049155;28;20021;-89
2023/05/13 11:54:52;;;;;;;2.78;1.33;;;27.90;44.00;;;;;;5052968;28;20025;-87
2023/05/13 11:57:31;;;;;;;2.55;1.15;;;27.90;44.20;;;;;;5055589;28;20021;-87
2023/05/13 12:00:05;;;;;;;4.95;1.50;;;27.90;44.20;;;;;;5051918;28;20024;-88
2023/05/13 12:02:36;;;;;;;4.97;1.60;;;27.90;43.80;;;;;;5051638;28;20107;-88
2023/05/13 12:05:11;;;;;;;2.70;1.38;;;28.00;44.00;;;;;;5034900;28;20032;-88
2023/05/13 12:07:38;;;;;;;4.53;1.52;;;28.10;43.80;;;;;;5051568;28;20092;-86
2023/05/13 12:10:05;;;;;;;4.53;1.35;;;28.30;43.90;;;;;;5052541;28;20021;-87
2023/05/13 12:12:33;;;;;;;3.33;1.77;;;28.40;43.50;;;;;;5053076;28;20035;-87
2023/05/13 12:15:02;;;;;;;3.20;1.27;;;28.50;43.20;;;;;;5052387;28;20027;-84
2023/05/13 12:17:29;;;;;;;2.58;1.40;;;28.70;42.90;;;;;;5051705;28;20024;-85
2023/05/13 12:20:04;;;;;;;3.13;1.30;;;28.80;42.80;;;;;;5051586;28;20461;-86
2023/05/13 12:22:30;;;;;;;2.58;1.30;;;28.70;42.60;;;;;;5052373;28;20025;-86
2023/05/13 12:24:59;;;;;;;2.72;1.20;;;28.90;42.80;;;;;;5052265;28;20021;-86
2023/05/13 12:27:25;;;;;;;4.70;1.27;;;29.10;42.50;;;;;;5053918;28;20065;-86
2023/05/13 12:29:54;;;;;;;2.53;1.20;;;29.30;42.30;;;;;;5052425;28;20021;-86
2023/05/13 12:32:20;;;;;;;3.97;1.50;;;29.50;42.10;;;;;;5052273;28;20020;-86
2023/05/13 12:34:50;;;;;;;4.75;1.42;;;29.70;41.80;;;;;;5052388;28;20086;-89
2023/05/13 12:37:16;;;;;;;2.88;1.20;;;29.80;41.40;;;;;;5054126;28;20032;-89
2023/05/13 12:39:43;;;;;;;3.13;1.35;;;30.10;41.40;;;;;;5052643;28;20017;-89
2023/05/13 12:42:16;;;;;;;2.42;1.20;;;30.30;41.20;;;;;;5053924;28;20024;-87
2023/05/13 12:44:44;;;;;;;;;;;30.50;40.80;;;;;;5053305;28;20052;-87
2023/05/13 12:47:12;;;;;;;2.60;1.17;;;30.70;41.20;;;;;;5053804;28;19919;-88